Time;durP1;ratioP1;P1;durP2;ratioP2;P2;SDS_P1;SDS_P2;PMS_P1;PMS_P2;Temp;Humidity;BMP_temperature;BMP_pressure;BME280_temperature;BME280_humidity;BME280_pressure;Samples;Min_cycle;Max_cycle;Signal;HPM_P1;HPM_P2
2021/03/11 00:01:25;;;;;;;17.27;5.53;;;;;;;-6.09;64.89;100547.83;1749969;80;21510;-53
2021/03/11 00:03:53;;;;;;;15.70;5.40;;;;;;;-6.13;64.97;100550.38;1752078;80;21511;-52
2021/03/11 00:06:20;;;;;;;14.00;5.27;;;;;;;-6.15;64.95;100553.79;1753244;80;21108;-55
2021/03/11 00:08:47;;;;;;;13.07;4.93;;;;;;;-6.19;64.97;100554.09;1751730;80;22423;-53
2021/03/11 00:11:15;;;;;;;14.33;4.77;;;;;;;-6.19;64.96;100550.17;1753242;80;21181;-52
2021/03/11 00:13:43;;;;;;;19.03;5.70;;;;;;;-6.20;64.92;100550.11;1753581;80;21151;-53
2021/03/11 00:16:10;;;;;;;15.20;5.77;;;;;;;-6.22;65.02;100554.44;1752769;80;21123;-55
2021/03/11 00:18:38;;;;;;;15.30;5.17;;;;;;;-6.24;65.01;100554.81;1751785;80;21195;-53
2021/03/11 00:21:05;;;;;;;14.37;6.67;;;;;;;-6.30;64.93;100556.83;1748026;80;21873;-52
2021/03/11 00:23:34;;;;;;;12.33;5.20;;;;;;;-6.35;65.15;100550.53;1753014;80;21203;-54
2021/03/11 00:26:01;;;;;;;12.73;5.63;;;;;;;-6.37;65.20;100550.89;1741255;80;21185;-55
2021/03/11 00:28:29;;;;;;;14.47;4.87;;;;;;;-6.38;65.18;100556.97;1739674;80;21426;-55
2021/03/11 00:30:56;;;;;;;16.97;6.10;;;;;;;-6.39;65.25;100548.67;1736212;80;21183;-53
2021/03/11 00:33:23;;;;;;;10.47;4.77;;;;;;;-6.38;65.23;100542.56;1742891;80;23102;-55
2021/03/11 00:35:51;;;;;;;12.67;5.63;;;;;;;-6.38;65.14;100550.42;1743647;80;21140;-52
2021/03/11 00:38:19;;;;;;;13.97;4.83;;;;;;;-6.41;65.14;100552.97;1741029;80;21543;-53
2021/03/11 00:40:46;;;;;;;15.00;6.60;;;;;;;-6.43;65.17;100552.02;1739500;80;21183;-52
2021/03/11 00:43:14;;;;;;;17.00;5.47;;;;;;;-6.46;65.08;100546.67;1741029;80;21405;-52
2021/03/11 00:45:47;;;;;;;13.87;5.30;;;;;;;-6.48;65.07;100541.83;1737847;80;22338;-55
2021/03/11 00:48:11;;;;;;;16.07;6.23;;;;;;;-6.51;65.08;100541.72;1740988;80;21144;-54
2021/03/11 00:50:41;;;;;;;14.33;5.70;;;;;;;-6.56;65.17;100538.97;1740460;80;21481;-52
2021/03/11 00:53:08;;;;;;;16.13;5.37;;;;;;;-6.57;65.21;100531.94;1679710;83;21159;-55
2021/03/11 00:55:36;;;;;;;13.13;5.43;;;;;;;-6.58;65.19;100533.20;1740669;80;21482;-53
2021/03/11 00:58:03;;;;;;;12.67;6.03;;;;;;;-6.65;65.16;100529.50;1740676;80;21199;-53
2021/03/11 01:00:31;;;;;;;16.83;6.07;;;;;;;-6.68;65.24;100535.04;1678948;83;21033;-53
2021/03/11 01:03:08;;;;;;;21.63;10.13;;;;;;;-6.69;65.38;100527.60;1852825;75;27767;-54
2021/03/11 01:05:38;;;;;;;15.07;6.70;;;;;;;-6.66;65.54;100524.20;1837569;76;21276;-55
2021/03/11 01:08:07;;;;;;;19.67;6.80;;;;;;;-6.55;65.43;100525.00;1843984;76;22194;-56
2021/03/11 01:10:38;;;;;;;14.50;5.60;;;;;;;-6.51;65.29;100512.91;1842957;76;21041;-54
2021/03/11 01:13:05;;;;;;;17.07;5.87;;;;;;;-6.51;65.18;100510.28;1839439;76;21213;-53
2021/03/11 01:15:39;;;;;;;13.17;5.17;;;;;;;-6.52;65.15;100517.67;1839734;76;21500;-53
2021/03/11 01:18:14;;;;;;;13.37;5.90;;;;;;;-6.52;65.00;100512.44;1870482;75;22683;-56
2021/03/11 01:20:42;;;;;;;17.17;5.73;;;;;;;-6.63;65.05;100509.88;1838373;76;21202;-52
2021/03/11 01:23:09;;;;;;;12.47;4.83;;;;;;;-6.67;65.13;100506.71;1834989;76;21353;-52
2021/03/11 01:25:37;;;;;;;15.53;5.57;;;;;;;-6.68;65.36;100511.47;1783513;78;21194;-55
2021/03/11 01:28:04;;;;;;;18.60;5.57;;;;;;;-6.67;65.38;100505.41;1805461;78;21044;-53
2021/03/11 01:30:31;;;;;;;14.23;7.03;;;;;;;-6.69;65.35;100505.77;1802505;78;21224;-55
2021/03/11 01:32:59;;;;;;;14.63;4.77;;;;;;;-6.74;65.26;100503.43;1780402;78;21492;-53
2021/03/11 01:35:27;;;;;;;13.83;6.27;;;;;;;-6.75;65.25;100509.50;1802308;78;21190;-53
2021/03/11 01:37:54;;;;;;;16.63;6.37;;;;;;;-6.77;65.11;100509.45;1783658;78;21501;-54
2021/03/11 01:40:21;;;;;;;13.70;5.40;;;;;;;-6.82;64.98;100514.07;1802592;77;21190;-54
2021/03/11 01:42:49;;;;;;;13.47;4.47;;;;;;;-6.89;65.06;100518.22;1743284;78;21798;-54
2021/03/11 01:45:17;;;;;;;14.83;6.33;;;;;;;-6.96;65.30;100518.41;1772230;78;21182;-53
2021/03/11 01:47:44;;;;;;;21.37;5.07;;;;;;;-6.97;65.52;100513.12;1774172;78;22204;-54
2021/03/11 01:50:12;;;;;;;15.17;5.87;;;;;;;-6.96;65.56;100517.10;1772610;78;21207;-53
2021/03/11 01:52:40;;;;;;;16.47;6.20;;;;;;;-6.96;65.55;100506.63;1771831;78;21191;-54
2021/03/11 01:55:08;;;;;;;13.00;5.70;;;;;;;-6.97;65.42;100520.97;1747051;78;21669;-55
2021/03/11 01:57:36;;;;;;;13.07;5.97;;;;;;;-7.00;65.43;100521.78;1768240;78;21481;-52
2021/03/11 02:00:08;;;;;;;13.77;5.67;;;;;;;-7.03;65.43;100522.97;1778606;78;21847;-53
2021/03/11 02:02:42;;;;;;;13.20;4.47;;;;;;;-7.05;65.44;100522.02;1749739;79;21242;-54
2021/03/11 02:05:14;;;;;;;13.80;5.10;;;;;;;-7.05;65.52;100532.91;1748506;79;21573;-51
2021/03/11 02:07:43;;;;;;;17.10;5.53;;;;;;;-7.04;65.51;100536.00;1746017;79;21449;-53
2021/03/11 02:10:19;;;;;;;13.00;4.17;;;;;;;-7.05;65.46;100530.29;1748400;79;21186;-54
2021/03/11 02:13:20;;;;;;;12.73;5.30;;;;;;;-7.06;65.59;100525.47;1749207;79;22658;-53
2021/03/11 02:16:06;;;;;;;13.13;4.60;;;;;;;-7.05;65.63;100533.80;1749042;79;21989;-55
2021/03/11 02:19:03;;;;;;;13.50;4.20;;;;;;;-7.05;65.68;100532.91;1732587;80;21190;-54
2021/03/11 02:21:47;;;;;;;16.63;4.80;;;;;;;-7.06;65.52;100533.32;1653802;84;21322;-54
2021/03/11 02:24:40;;;;;;;9.30;4.07;;;;;;;-7.04;65.46;100533.38;1823197;76;24976;-56
2021/03/11 02:27:34;;;;;;;13.75;4.83;;;;;;;-7.10;65.44;100544.53;1794083;77;21182;-53
2021/03/11 02:30:02;;;;;;;14.65;5.35;;;;;;;-7.11;65.42;100542.75;1791068;77;21390;-54
2021/03/11 02:32:29;;;;;;;12.63;4.37;;;;;;;-7.12;65.37;100538.35;1740388;80;21184;-53
2021/03/11 02:34:59;;;;;;;12.37;4.67;;;;;;;-7.15;65.44;100534.34;1734697;79;21187;-54
2021/03/11 02:37:39;;;;;;;16.80;6.33;;;;;;;-7.15;65.53;100535.66;1762398;79;21143;-52
2021/03/11 02:40:23;;;;;;;12.40;4.87;;;;;;;-7.14;65.49;100534.78;1741165;80;21197;-54
2021/03/11 02:42:52;;;;;;;9.17;3.90;;;;;;;-7.14;65.49;100545.25;1705166;81;21365;-56
2021/03/11 02:45:23;;;;;;;16.53;5.20;;;;;;;-7.14;65.58;100535.20;1774096;79;21004;-56
2021/03/11 02:47:51;;;;;;;11.87;4.90;;;;;;;-7.13;65.49;100540.91;1775113;79;20965;-56
2021/03/11 02:50:19;;;;;;;12.67;5.20;;;;;;;-7.15;65.42;100545.23;1775665;79;21181;-56
2021/03/11 02:52:46;;;;;;;16.93;7.20;;;;;;;-7.19;65.51;100545.52;1745435;79;21532;-55
2021/03/11 02:55:18;;;;;;;17.67;6.63;;;;;;;-7.21;65.62;100546.30;1773164;79;23025;-56
2021/03/11 02:57:45;;;;;;;15.33;6.43;;;;;;;-7.24;65.70;100544.91;1747924;79;21239;-55
2021/03/11 03:00:15;;;;;;;25.40;7.53;;;;;;;-7.27;65.89;100542.64;1771403;79;21243;-55
2021/03/11 03:02:43;;;;;;;13.57;5.60;;;;;;;-7.27;66.05;100540.02;1773281;79;21154;-56
2021/03/11 03:05:17;;;;;;;13.33;5.87;;;;;;;-7.26;66.11;100539.20;1774855;79;21102;-55
2021/03/11 03:07:46;;;;;;;15.05;5.00;;;;;;;-7.23;66.07;100542.77;1777585;79;22132;-56
2021/03/11 03:10:19;;;;;;;16.97;5.80;;;;;;;-7.21;66.11;100541.06;1773134;79;21187;-55
2021/03/11 03:12:50;;;;;;;16.37;7.67;;;;;;;-7.21;66.05;100539.75;1780230;79;21122;-55
2021/03/11 03:15:19;;;;;;;13.57;5.60;;;;;;;-7.22;65.99;100541.48;1772460;79;21242;-55
2021/03/11 03:17:47;;;;;;;14.33;5.77;;;;;;;-7.23;66.03;100544.97;1772777;79;21127;-55
2021/03/11 03:20:16;;;;;;;12.80;5.97;;;;;;;-7.24;66.05;100541.87;1776512;79;23029;-55
2021/03/11 03:22:44;;;;;;;17.27;5.27;;;;;;;-7.22;65.98;100540.59;1770197;79;21191;-55
2021/03/11 03:25:13;;;;;;;18.27;6.73;;;;;;;-7.22;65.95;100538.86;1769534;79;21538;-55
2021/03/11 03:27:41;;;;;;;15.13;5.13;;;;;;;-7.18;65.98;100539.45;1771852;79;20969;-55
2021/03/11 03:30:12;;;;;;;16.23;6.60;;;;;;;-7.17;65.94;100537.31;1772876;79;21079;-54
2021/03/11 03:32:39;;;;;;;21.33;6.50;;;;;;;-7.14;65.93;100544.36;1772975;79;21008;-55
2021/03/11 03:35:08;;;;;;;16.17;7.20;;;;;;;-7.13;65.84;100536.98;1770557;79;21128;-54
2021/03/11 03:37:36;;;;;;;16.10;6.50;;;;;;;-7.13;65.74;100544.84;1770899;79;21106;-55
2021/03/11 03:40:06;;;;;;;15.53;5.87;;;;;;;-7.14;65.73;100538.71;1771148;79;21427;-55
2021/03/11 03:42:40;;;;;;;15.90;6.10;;;;;;;-7.14;65.79;100537.82;1768691;79;21166;-54
2021/03/11 03:45:09;;;;;;;19.13;6.77;;;;;;;-7.12;65.80;100538.35;1769327;79;22133;-55
2021/03/11 03:47:36;;;;;;;14.73;6.43;;;;;;;-7.11;65.83;100534.91;1755950;80;21125;-55
2021/03/11 03:50:04;;;;;;;14.73;6.23;;;;;;;-7.10;65.77;100539.30;1771575;79;21157;-55
2021/03/11 03:52:32;;;;;;;15.83;6.67;;;;;;;-7.08;65.68;100538.05;1723869;81;21246;-55
2021/03/11 03:54:59;;;;;;;18.90;6.20;;;;;;;-7.10;65.62;100545.84;1772933;79;21111;-54
2021/03/11 03:57:26;;;;;;;19.03;7.10;;;;;;;-7.14;65.64;100538.71;1751422;80;21594;-54
2021/03/11 03:59:54;;;;;;;15.10;5.93;;;;;;;-7.15;65.71;100541.30;1753361;80;21160;-55
2021/03/11 04:02:21;;;;;;;15.77;6.67;;;;;;;-7.16;65.65;100543.44;1753368;80;21136;-54
2021/03/11 04:04:49;;;;;;;17.07;6.13;;;;;;;-7.17;65.61;100545.16;1753917;80;21117;-54
2021/03/11 04:07:20;;;;;;;19.37;7.20;;;;;;;-7.18;65.53;100551.23;1771035;79;21485;-56
2021/03/11 04:09:48;;;;;;;17.20;6.83;;;;;;;-7.20;65.59;100550.28;1717769;81;21352;-55
2021/03/11 04:12:16;;;;;;;14.40;7.00;;;;;;;-7.20;65.72;100557.23;1717029;81;21220;-55
2021/03/11 04:14:45;;;;;;;14.27;6.57;;;;;;;-7.18;65.77;100559.08;1749660;80;21896;-55
2021/03/11 04:17:12;;;;;;;18.60;6.27;;;;;;;-7.16;65.79;100565.68;1765095;79;21439;-54
2021/03/11 04:19:40;;;;;;;19.23;6.97;;;;;;;-7.15;65.77;100565.74;1750368;80;21702;-55
2021/03/11 04:22:07;;;;;;;21.53;7.43;;;;;;;-7.15;65.83;100556.58;1749563;80;21230;-55
2021/03/11 04:24:35;;;;;;;19.23;6.50;;;;;;;-7.15;65.81;100563.13;1755401;79;21216;-55
2021/03/11 04:27:05;;;;;;;24.20;7.73;;;;;;;-7.15;65.90;100558.31;1755501;79;21179;-55
2021/03/11 04:29:34;;;;;;;21.20;8.30;;;;;;;-7.16;65.91;100556.52;1758479;79;21135;-55
2021/03/11 04:32:01;;;;;;;20.70;7.57;;;;;;;-7.16;66.05;100558.72;1756924;79;21192;-55
2021/03/11 04:34:29;;;;;;;18.67;7.17;;;;;;;-7.16;66.05;100563.95;1756337;79;21374;-55
2021/03/11 04:36:57;;;;;;;16.03;7.03;;;;;;;-7.14;66.17;100562.26;1751178;79;22312;-55
2021/03/11 04:39:24;;;;;;;20.30;8.20;;;;;;;-7.11;66.23;100564.99;1723818;81;21204;-54
2021/03/11 04:41:52;;;;;;;18.03;7.47;;;;;;;-7.07;66.16;100566.00;1777659;78;21166;-54
2021/03/11 04:44:21;;;;;;;15.80;6.13;;;;;;;-7.07;66.24;100560.77;1777959;78;21138;-55
2021/03/11 04:46:48;;;;;;;18.00;6.67;;;;;;;-7.05;66.26;100562.58;1776637;79;21424;-54
2021/03/11 04:49:16;;;;;;;18.03;7.33;;;;;;;-7.04;66.25;100565.67;1776813;79;21187;-54
2021/03/11 04:51:43;;;;;;;17.63;6.60;;;;;;;-7.03;66.15;100569.18;1776455;78;21195;-55
2021/03/11 04:54:12;;;;;;;18.00;6.97;;;;;;;-7.03;66.14;100563.53;1775286;79;21537;-55
2021/03/11 04:56:41;;;;;;;19.17;7.33;;;;;;;-7.02;66.28;100569.66;1755085;79;20913;-54
2021/03/11 04:59:11;;;;;;;15.93;7.37;;;;;;;-7.00;66.34;100574.12;1776503;79;22148;-55
2021/03/11 05:01:47;;;;;;;15.83;6.40;;;;;;;-7.00;66.39;100568.88;1775338;78;21880;-55
2021/03/11 05:04:14;;;;;;;16.20;5.50;;;;;;;-6.96;66.48;100565.52;1779096;78;21177;-54
2021/03/11 05:06:41;;;;;;;17.53;5.90;;;;;;;-6.89;66.48;100564.03;1777884;78;21585;-55
2021/03/11 05:09:09;;;;;;;19.03;6.53;;;;;;;-6.81;66.44;100560.36;1777713;78;21408;-55
2021/03/11 05:11:38;;;;;;;10.03;4.93;;;;;;;-6.74;66.39;100564.95;1778787;78;21233;-55
2021/03/11 05:14:06;;;;;;;19.30;6.30;;;;;;;-6.66;66.41;100563.48;1775715;79;21150;-55
2021/03/11 05:16:33;;;;;;;12.00;5.83;;;;;;;-6.58;66.46;100562.89;1777726;78;21147;-55
2021/03/11 05:19:02;;;;;;;12.53;5.20;;;;;;;-6.46;66.50;100555.84;1779178;79;21490;-56
2021/03/11 05:21:29;;;;;;;12.07;4.97;;;;;;;-6.34;66.54;100564.10;1774065;78;21171;-56
2021/03/11 05:23:58;;;;;;;11.37;5.37;;;;;;;-6.22;66.56;100568.44;1778473;79;21596;-55
2021/03/11 05:26:28;;;;;;;24.10;6.00;;;;;;;-6.08;66.65;100567.55;1776230;79;21192;-54
2021/03/11 05:28:56;;;;;;;12.67;5.40;;;;;;;-5.92;66.63;100565.86;1777234;79;21435;-55
2021/03/11 05:31:23;;;;;;;16.90;5.67;;;;;;;-5.72;66.76;100567.32;1774664;79;21103;-55
2021/03/11 05:33:50;;;;;;;16.77;5.57;;;;;;;-5.47;66.77;100573.28;1773286;79;21135;-55
2021/03/11 05:36:18;;;;;;;25.63;6.57;;;;;;;-5.21;66.74;100567.45;1773951;79;21194;-55
2021/03/11 05:38:46;;;;;;;17.77;6.27;;;;;;;-4.92;66.65;100567.80;1774912;79;21166;-56
2021/03/11 05:41:14;;;;;;;23.00;6.33;;;;;;;-4.60;66.50;100565.61;1772877;79;21171;-55
2021/03/11 05:43:45;;;;;;;29.37;7.57;;;;;;;-4.27;66.21;100566.86;1771277;79;21024;-56
2021/03/11 05:46:12;;;;;;;27.00;8.17;;;;;;;-3.97;65.92;100565.78;1770733;79;21202;-56
2021/03/11 05:48:40;;;;;;;28.53;8.20;;;;;;;-3.68;65.59;100565.13;1777277;79;21204;-56
2021/03/11 05:51:08;;;;;;;13.17;4.40;;;;;;;-3.45;65.29;100568.70;1774045;79;21487;-56
2021/03/11 05:53:37;;;;;;;9.30;3.27;;;;;;;-3.28;64.79;100562.89;1770973;79;21158;-57
2021/03/11 05:56:06;;;;;;;14.37;4.57;;;;;;;-3.09;64.40;100558.45;1775560;79;21159;-58
2021/03/11 05:58:34;;;;;;;15.60;5.77;;;;;;;-2.89;64.10;100568.05;1777327;79;21175;-58
2021/03/11 06:01:02;;;;;;;11.33;5.10;;;;;;;-2.74;63.60;100561.74;1775288;79;21422;-58
2021/03/11 06:03:33;;;;;;;15.13;5.13;;;;;;;-2.63;63.16;100565.86;1772211;79;21242;-58
2021/03/11 06:06:01;;;;;;;14.37;4.90;;;;;;;-2.58;62.60;100566.42;1775376;79;21167;-59
2021/03/11 06:08:29;;;;;;;11.23;4.60;;;;;;;-2.54;61.95;100571.30;1773686;79;21227;-59
2021/03/11 06:10:58;;;;;;;10.13;4.43;;;;;;;-2.52;61.14;100574.42;1775565;79;22493;-59
2021/03/11 06:13:25;;;;;;;18.50;6.97;;;;;;;-2.57;60.84;100568.63;1773917;79;21483;-59
2021/03/11 06:16:03;;;;;;;16.77;7.23;;;;;;;-2.57;60.80;100572.16;1770319;79;21961;-58
2021/03/11 06:18:32;;;;;;;35.97;8.40;;;;;;;-2.55;60.99;100572.19;1739016;80;20972;-59
2021/03/11 06:21:01;;;;;;;15.60;6.83;;;;;;;-2.52;61.03;100578.38;1726686;81;21147;-60
2021/03/11 06:23:31;;;;;;;19.67;7.30;;;;;;;-2.47;61.00;100574.52;1726000;81;21111;-59
2021/03/11 06:25:58;;;;;;;11.80;4.43;;;;;;;-2.44;60.54;100580.72;1773385;79;21343;-60
2021/03/11 06:28:48;;;;;;;17.63;6.50;;;;;;;-2.40;60.58;100581.67;1740977;80;21142;-60
2021/03/11 06:31:24;;;;;;;11.67;4.33;;;;;;;-2.35;60.42;100586.14;1772282;79;21439;-59
2021/03/11 06:33:54;;;;;;;20.43;5.17;;;;;;;-2.30;60.07;100587.09;1774446;79;21107;-60
2021/03/11 06:36:25;;;;;;;10.17;4.30;;;;;;;-2.20;59.75;100583.29;1775692;79;21127;-59
2021/03/11 06:38:54;;;;;;;13.33;4.07;;;;;;;-2.13;59.09;100584.77;1771650;79;22072;-59
2021/03/11 06:41:21;;;;;;;15.17;5.33;;;;;;;-2.07;58.93;100578.25;1775618;79;21202;-59
2021/03/11 06:43:59;;;;;;;10.00;4.60;;;;;;;-1.98;58.13;100578.40;1769607;79;21136;-59
2021/03/11 06:46:29;;;;;;;16.47;5.03;;;;;;;-1.87;57.51;100582.49;1776917;79;21299;-59
2021/03/11 06:49:10;;;;;;;15.17;5.10;;;;;;;-1.79;57.50;100584.84;1777317;79;21122;-59
2021/03/11 06:51:38;;;;;;;15.67;3.97;;;;;;;-1.68;57.34;100585.86;1782351;79;21616;-59
2021/03/11 06:54:06;;;;;;;11.47;5.40;;;;;;;-1.59;56.81;100583.35;1736825;80;21201;-59
2021/03/11 06:56:33;;;;;;;17.23;5.90;;;;;;;-1.48;56.78;100590.53;1726650;81;21175;-59
2021/03/11 06:59:05;;;;;;;9.43;4.40;;;;;;;-1.39;56.55;100588.02;1733133;81;21169;-59
2021/03/11 07:01:34;;;;;;;13.83;4.23;;;;;;;-1.35;56.23;100590.70;1719054;81;21141;-59
2021/03/11 07:04:02;;;;;;;8.53;2.27;;;;;;;-1.32;55.85;100587.23;1733567;81;21731;-59
2021/03/11 07:06:35;;;;;;;8.87;2.90;;;;;;;-1.29;54.87;100582.88;1734172;81;21637;-59
2021/03/11 07:09:06;;;;;;;10.98;2.50;;;;;;;-1.23;54.70;100586.02;1742889;80;21186;-59
2021/03/11 07:11:33;;;;;;;11.63;4.43;;;;;;;-1.18;54.64;100583.88;1722728;81;21793;-59
2021/03/11 07:14:03;;;;;;;10.80;3.53;;;;;;;-1.12;54.66;100576.48;1721001;81;21174;-58
2021/03/11 07:16:35;;;;;;;14.10;3.00;;;;;;;-1.09;54.62;100579.58;1723694;81;21397;-59
2021/03/11 07:19:17;;;;;;;10.73;3.53;;;;;;;-1.03;54.05;100584.52;1722819;81;21285;-59
2021/03/11 07:21:56;;;;;;;5.33;2.63;;;;;;;-0.94;53.71;100583.31;1770671;79;21145;-60
2021/03/11 07:24:37;;;;;;;3.77;1.77;;;;;;;-0.86;53.48;100591.31;1769874;79;21162;-59
2021/03/11 07:27:06;;;;;;;5.63;1.60;;;;;;;-0.79;52.64;100588.75;1765281;79;21203;-59
2021/03/11 07:29:35;;;;;;;8.67;2.27;;;;;;;-0.76;51.79;100591.84;1769033;79;22217;-58
2021/03/11 07:32:07;;;;;;;6.43;2.00;;;;;;;-0.75;51.45;100587.01;1765611;79;21166;-59
2021/03/11 07:34:37;;;;;;;5.17;1.37;;;;;;;-0.73;51.81;100595.84;1766467;79;21195;-59
2021/03/11 07:37:05;;;;;;;2.67;1.77;;;;;;;-0.66;51.20;100588.86;1767963;79;21191;-59
2021/03/11 07:39:36;;;;;;;4.63;1.63;;;;;;;-0.60;50.59;100586.30;1768415;79;21159;-60
2021/03/11 07:42:06;;;;;;;5.60;1.40;;;;;;;-0.54;50.84;100589.89;1769047;79;21212;-60
2021/03/11 07:44:34;;;;;;;2.50;1.37;;;;;;;-0.46;50.48;100584.66;1765654;79;21178;-61
2021/03/11 07:47:04;;;;;;;3.27;1.33;;;;;;;-0.41;49.75;100584.26;1764724;79;21139;-60
2021/03/11 07:49:33;;;;;;;3.27;1.33;;;;;;;-0.40;48.93;100588.68;1763140;79;21162;-61
2021/03/11 07:52:02;;;;;;;5.00;1.50;;;;;;;-0.42;48.76;100590.41;1765534;79;22582;-61
2021/03/11 07:54:32;;;;;;;7.03;1.57;;;;;;;-0.40;48.72;100586.03;1768185;79;21314;-61
2021/03/11 07:57:01;;;;;;;3.83;1.40;;;;;;;-0.37;48.31;100589.16;1765781;79;21238;-63
2021/03/11 07:59:28;;;;;;;5.07;1.10;;;;;;;-0.34;48.04;100582.58;1762339;79;21186;-64
2021/03/11 08:02:08;;;;;;;2.27;1.37;;;;;;;-0.30;47.33;100590.54;1766532;79;21243;-62
2021/03/11 08:04:42;;;;;;;3.13;1.40;;;;;;;-0.26;47.64;100598.08;1767228;79;21555;-62
2021/03/11 08:07:48;;;;;;;4.03;1.20;;;;;;;-0.22;47.66;100594.14;1761733;79;21284;-62
2021/03/11 08:10:20;;;;;;;5.67;1.50;;;;;;;-0.17;47.74;100589.76;1730416;81;21126;-61
2021/03/11 08:12:47;;;;;;;3.60;1.47;;;;;;;-0.08;47.42;100581.00;1726762;81;21539;-61
2021/03/11 08:15:20;;;;;;;3.00;1.50;;;;;;;-0.05;47.27;100587.22;1728451;81;21253;-62
2021/03/11 08:17:49;;;;;;;2.33;1.30;;;;;;;-0.04;46.97;100577.09;1722379;81;21193;-60
2021/03/11 08:20:25;;;;;;;2.20;1.17;;;;;;;-0.05;46.37;100575.75;1729112;81;21384;-61
2021/03/11 08:23:00;;;;;;;2.37;1.37;;;;;;;-0.09;46.51;100572.21;1727979;81;21233;-61
2021/03/11 08:25:36;;;;;;;3.70;1.60;;;;;;;-0.13;47.16;100565.11;1700142;82;21205;-63
2021/03/11 08:28:15;;;;;;;2.60;1.50;;;;;;;-0.07;47.44;100569.55;1726396;81;21213;-64
2021/03/11 08:30:50;;;;;;;2.57;1.40;;;;;;;-0.07;47.20;100566.47;1697539;82;21178;-63
2021/03/11 08:33:29;;;;;;;3.90;1.40;;;;;;;-0.05;47.42;100567.38;1702290;82;21678;-64
2021/03/11 08:35:59;;;;;;;5.43;1.50;;;;;;;0.04;47.30;100564.34;1725361;81;21210;-65
2021/03/11 08:41:28;;;;;;;7.63;1.50;;;;;;;0.08;46.46;100566.16;1704555;82;21311;-61
2021/03/11 08:43:56;;;;;;;6.10;1.70;;;;;;;0.08;47.06;100563.50;1734839;80;21226;-63
2021/03/11 08:46:23;;;;;;;4.93;1.73;;;;;;;0.10;47.09;100560.41;1730866;80;21503;-64
2021/03/11 08:49:00;;;;;;;3.60;1.63;;;;;;;0.11;46.86;100558.20;1735403;80;21226;-63
2021/03/11 08:51:36;;;;;;;4.87;1.40;;;;;;;0.10;46.93;100551.14;1732406;81;21719;-64
2021/03/11 08:54:10;;;;;;;6.20;1.67;;;;;;;0.13;47.45;100544.55;1707088;82;21229;-64
2021/03/11 08:56:39;;;;;;;;;;;;;;;0.21;46.90;100546.80;1715175;82;21127;-64
2021/03/11 08:59:10;;;;;;;3.60;1.50;;;;;;;0.32;46.45;100556.59;1728063;81;20289;-63
2021/03/11 09:01:53;;;;;;;6.90;1.30;;;;;;;0.33;46.72;100551.75;1683528;82;21818;-64
2021/03/11 09:04:27;;;;;;;4.30;1.40;;;;;;;0.36;46.73;100547.78;1735821;80;21146;-64
2021/03/11 09:07:03;;;;;;;2.90;1.70;;;;;;;0.40;46.63;100540.75;1706395;82;21150;-64
2021/03/11 09:09:34;;;;;;;3.67;1.02;;;;;;;0.43;46.52;100543.39;1738579;81;26507;-65
2021/03/11 09:12:20;;;;;;;5.47;1.10;;;;;;;0.46;44.99;100546.06;1736975;81;21389;-63
2021/03/11 09:14:50;;;;;;;3.70;1.00;;;;;;;0.47;44.39;100542.55;1726878;81;21182;-64
2021/03/11 09:17:29;;;;;;;3.87;1.03;;;;;;;0.48;44.79;100541.67;1704871;82;21146;-65
2021/03/11 09:25:42;;;;;;;1.30;0.73;;;;;;;0.66;44.51;100543.52;1710572;82;21124;-65
2021/03/11 09:28:10;;;;;;;1.33;0.80;;;;;;;0.79;43.15;100541.34;1710349;82;21192;-65
2021/03/11 09:30:41;;;;;;;1.90;0.80;;;;;;;0.81;42.58;100540.92;1683136;81;21138;-65
2021/03/11 09:33:13;;;;;;;1.20;0.70;;;;;;;0.82;42.46;100543.13;1736266;81;21137;-62
2021/03/11 09:35:42;;;;;;;2.10;0.87;;;;;;;0.85;42.33;100532.55;1735003;81;21166;-65
2021/03/11 09:38:11;;;;;;;1.33;0.70;;;;;;;0.86;43.09;100544.90;1741272;81;21127;-65
2021/03/11 09:40:44;;;;;;;0.90;0.67;;;;;;;0.92;43.22;100548.92;1691496;82;21478;-65
2021/03/11 09:43:35;;;;;;;5.20;0.80;;;;;;;0.98;43.01;100542.30;1677442;83;21648;-64
2021/03/11 09:46:15;;;;;;;1.40;0.90;;;;;;;1.02;42.94;100542.30;1733528;81;21162;-65
2021/03/11 09:48:46;;;;;;;4.40;0.80;;;;;;;1.05;42.20;100552.92;1735895;81;21113;-67
2021/03/11 09:51:30;;;;;;;2.23;0.80;;;;;;;1.08;41.86;100546.31;1733135;81;21095;-65
2021/03/11 09:54:03;;;;;;;1.20;0.80;;;;;;;1.07;42.08;100550.28;1733409;81;22934;-65
2021/03/11 09:56:41;;;;;;;1.70;0.80;;;;;;;1.11;42.35;100548.06;1730734;81;21165;-65
2021/03/11 09:59:14;;;;;;;5.77;1.00;;;;;;;1.17;42.59;100544.56;1708896;81;21143;-64
2021/03/11 10:01:45;;;;;;;2.17;0.70;;;;;;;1.21;42.27;100550.30;1728514;81;21146;-63
2021/03/11 10:04:23;;;;;;;1.03;0.70;;;;;;;1.22;41.89;100548.98;1732901;81;21106;-66
2021/03/11 10:07:03;;;;;;;2.40;0.90;;;;;;;1.20;40.96;100540.13;1731624;81;21656;-66
2021/03/11 10:09:40;;;;;;;2.03;0.70;;;;;;;1.13;41.03;100539.69;1727598;81;21931;-67
2021/03/11 10:12:10;;;;;;;2.70;1.00;;;;;;;1.11;41.23;100542.77;1731445;81;21218;-65
2021/03/11 10:14:38;;;;;;;3.33;0.90;;;;;;;1.14;41.88;100540.12;1729153;81;21205;-66
2021/03/11 10:17:06;;;;;;;1.60;0.80;;;;;;;1.17;41.77;100534.84;1732457;81;21665;-67
2021/03/11 10:19:40;;;;;;;4.03;1.00;;;;;;;1.19;42.12;100541.05;1730328;81;21380;-66
2021/03/11 10:22:28;;;;;;;4.10;0.90;;;;;;;1.21;41.89;100531.73;1731462;81;21234;-66
2021/03/11 10:24:55;;;;;;;2.50;0.80;;;;;;;1.24;42.27;100534.41;1731778;81;21170;-65
2021/03/11 10:27:30;;;;;;;1.80;1.50;;;;;;;1.27;41.99;100523.81;1734727;80;21214;-63
2021/03/11 10:30:12;;;;;;;1.37;0.88;;;;;;;1.28;41.41;100522.47;1731064;80;21612;-67
2021/03/11 10:32:44;;;;;;;4.40;0.90;;;;;;;1.28;41.17;100526.45;1734210;81;21212;-66
2021/03/11 10:35:14;;;;;;;2.03;0.90;;;;;;;1.22;40.90;100525.13;1737006;80;21229;-66
2021/03/11 10:37:43;;;;;;;3.63;0.70;;;;;;;1.19;41.52;100521.59;1703838;80;21233;-65
2021/03/11 10:40:15;;;;;;;1.80;0.80;;;;;;;1.22;41.36;100526.45;1736914;80;21197;-65
2021/03/11 10:43:30;;;;;;;2.27;0.80;;;;;;;1.29;41.48;100516.28;1796541;78;26906;-64
2021/03/11 10:45:56;;;;;;;2.13;0.90;;;;;;;1.31;41.32;100510.55;1770711;79;21033;-66
2021/03/11 10:48:23;;;;;;;1.30;0.80;;;;;;;1.33;40.50;100510.11;1771417;79;22064;-66
2021/03/11 10:50:52;;;;;;;4.73;0.80;;;;;;;1.33;40.70;100499.95;1710608;81;21223;-65
2021/03/11 10:53:37;;;;;;;2.20;0.80;;;;;;;1.33;40.75;100502.16;1715480;81;21214;-64
2021/03/11 10:56:06;;;;;;;1.35;0.80;;;;;;;1.37;40.52;100497.72;1715500;81;27483;-66
2021/03/11 10:58:33;;;;;;;1.60;0.70;;;;;;;1.39;40.72;100503.92;1738288;81;21043;-66
2021/03/11 11:01:17;;;;;;;1.50;0.80;;;;;;;1.40;41.09;100499.06;1736484;81;21229;-66
2021/03/11 11:03:46;;;;;;;1.60;0.80;;;;;;;1.43;40.73;100488.02;1705538;83;21215;-66
2021/03/11 11:06:14;;;;;;;1.67;0.80;;;;;;;1.44;40.87;100480.95;1716133;81;21186;-66
2021/03/11 11:08:45;;;;;;;3.30;1.10;;;;;;;1.48;41.42;100474.30;1702439;82;21657;-66
2021/03/11 11:11:14;;;;;;;2.13;0.80;;;;;;;1.57;41.66;100480.49;1702721;82;21179;-64
2021/03/11 11:13:42;;;;;;;1.33;0.90;;;;;;;1.64;41.53;100475.61;1719047;82;21219;-65
2021/03/11 11:16:11;;;;;;;1.23;0.80;;;;;;;1.70;41.02;100471.18;1719886;81;21182;-63
2021/03/11 11:18:39;;;;;;;6.40;0.90;;;;;;;1.73;41.22;100469.86;1734587;81;21631;-65
2021/03/11 11:21:07;;;;;;;1.97;0.90;;;;;;;1.75;41.42;100472.08;1701439;82;21205;-67
2021/03/11 11:23:34;;;;;;;1.20;0.80;;;;;;;1.72;40.71;100457.91;1714465;81;21215;-66
2021/03/11 11:26:03;;;;;;;2.27;1.00;;;;;;;1.67;40.90;100455.28;1716862;81;21440;-68
2021/03/11 11:28:30;;;;;;;2.13;0.80;;;;;;;1.65;41.20;100449.52;1736079;81;21472;-65
2021/03/11 11:30:57;;;;;;;2.50;0.90;;;;;;;1.64;40.85;100453.05;1718930;81;21263;-68
2021/03/11 11:33:25;;;;;;;1.70;0.83;;;;;;;1.63;40.74;100449.96;1734743;81;21639;-66
2021/03/11 11:35:53;;;;;;;1.97;1.00;;;;;;;1.64;40.82;100452.62;1723034;81;21216;-66
2021/03/11 11:38:21;;;;;;;1.87;0.87;;;;;;;1.68;40.68;100450.86;1736037;81;22254;-67
2021/03/11 11:40:50;;;;;;;2.67;0.80;;;;;;;1.70;40.50;100446.44;1738171;81;21230;-65
2021/03/11 11:43:18;;;;;;;2.43;0.80;;;;;;;1.70;40.09;100448.62;1672050;83;21511;-65
2021/03/11 11:45:46;;;;;;;2.27;0.93;;;;;;;1.66;38.71;100448.20;1667942;83;21237;-67
2021/03/11 11:48:13;;;;;;;1.30;0.77;;;;;;;1.60;39.54;100446.00;1734652;80;21184;-63